createdAt,value
2019-05-09T00:00:07.754Z,10.95
2019-05-09T00:03:13.816Z,10.93
2019-05-09T00:06:17.886Z,10.89
2019-05-09T00:09:23.159Z,10.82
2019-05-09T00:12:27.358Z,10.75
2019-05-09T00:15:33.300Z,10.73
2019-05-09T00:18:37.839Z,10.71
2019-05-09T00:21:44.353Z,10.71
2019-05-09T00:24:48.549Z,10.68
2019-05-09T00:27:53.697Z,10.62
2019-05-09T00:31:09.122Z,10.57
2019-05-09T00:34:17.851Z,10.51
2019-05-09T00:37:43.081Z,10.44
2019-05-09T00:40:56.000Z,10.41
2019-05-09T00:43:59.631Z,10.36
2019-05-09T00:47:09.989Z,10.29
2019-05-09T00:50:14.318Z,10.29
2019-05-09T00:53:18.291Z,10.25
2019-05-09T00:56:24.015Z,10.22
2019-05-09T00:59:29.335Z,10.20
2019-05-09T01:02:34.099Z,10.20
2019-05-09T01:05:38.258Z,10.26
2019-05-09T01:08:44.212Z,10.23
2019-05-09T01:11:48.240Z,10.18
2019-05-09T01:14:53.881Z,10.16
2019-05-09T01:17:58.170Z,10.15
2019-05-09T01:21:03.959Z,10.15
2019-05-09T01:24:08.466Z,10.13
2019-05-09T01:27:14.203Z,10.11
2019-05-09T01:30:18.538Z,10.07
2019-05-09T01:33:29.309Z,10.03
2019-05-09T01:36:50.815Z,10.02
2019-05-09T01:39:55.022Z,10.00
2019-05-09T01:42:59.153Z,9.95
2019-05-09T01:46:03.891Z,9.92
2019-05-09T01:49:08.070Z,9.91
2019-05-09T01:52:13.762Z,9.93
2019-05-09T01:55:17.935Z,9.92
2019-05-09T01:58:23.229Z,9.89
2019-05-09T02:01:27.482Z,9.84
2019-05-09T02:04:33.402Z,9.78
2019-05-09T02:07:37.569Z,9.69
2019-05-09T02:10:44.055Z,9.61
2019-05-09T02:13:48.507Z,9.57
2019-05-09T02:17:07.054Z,9.53
2019-05-09T02:20:13.520Z,9.51
2019-05-09T02:23:16.621Z,9.52
2019-05-09T02:26:20.564Z,9.53
2019-05-09T02:29:24.517Z,9.46
2019-05-09T02:32:28.874Z,9.40
2019-05-09T02:35:39.586Z,9.38
2019-05-09T02:38:39.240Z,9.39
2019-05-09T02:41:59.610Z,9.44
2019-05-09T02:44:49.621Z,9.48
2019-05-09T02:47:54.084Z,9.56
2019-05-09T02:51:00.336Z,9.67
2019-05-09T02:54:04.157Z,9.77
2019-05-09T02:57:09.324Z,9.82
2019-05-09T03:00:33.213Z,9.80
2019-05-09T03:03:39.402Z,9.86
2019-05-09T03:06:43.421Z,9.90
2019-05-09T03:09:48.219Z,9.97
2019-05-09T03:12:52.403Z,10.02
2019-05-09T03:16:00.535Z,10.06
2019-05-09T03:19:04.854Z,10.06
2019-05-09T03:22:14.248Z,10.06
2019-05-09T03:25:19.255Z,10.01
2019-05-09T03:28:39.355Z,9.98
2019-05-09T03:31:43.951Z,10.03
2019-05-09T03:34:48.239Z,10.09
2019-05-09T03:38:07.845Z,10.16
2019-05-09T03:41:11.462Z,10.21
2019-05-09T03:44:17.909Z,10.27
2019-05-09T03:47:31.475Z,10.33
2019-05-09T03:50:35.585Z,10.37
2019-05-09T03:53:40.306Z,10.41
2019-05-09T03:56:47.957Z,10.44
2019-05-09T03:59:52.142Z,10.48
2019-05-09T04:02:58.061Z,10.53
2019-05-09T04:06:03.191Z,10.55
2019-05-09T04:09:07.630Z,10.57
2019-05-09T04:12:12.021Z,10.58
2019-05-09T04:15:18.914Z,10.62
2019-05-09T04:18:21.883Z,10.63
2019-05-09T04:21:27.980Z,10.64
2019-05-09T04:24:32.874Z,10.67
2019-05-09T04:27:37.518Z,10.68
2019-05-09T04:30:42.031Z,10.69
2019-05-09T04:33:47.357Z,10.72
2019-05-09T04:36:51.946Z,10.74
2019-05-09T04:40:01.592Z,10.77
2019-05-09T04:43:11.958Z,10.80
2019-05-09T04:46:13.069Z,10.85
2019-05-09T04:49:14.556Z,10.85
2019-05-09T04:52:18.520Z,10.90
2019-05-09T04:55:27.289Z,10.98
2019-05-09T04:58:31.188Z,11.06
2019-05-09T05:02:03.664Z,11.20
2019-05-09T05:05:07.994Z,11.32
2019-05-09T05:08:11.821Z,11.50
2019-05-09T05:11:17.844Z,11.61
2019-05-09T05:14:21.805Z,11.66
2019-05-09T05:17:30.295Z,11.62
2019-05-09T05:20:31.772Z,11.55
2019-05-09T05:23:47.141Z,11.48
2019-05-09T05:26:51.775Z,11.44
2019-05-09T05:29:58.376Z,11.44
2019-05-09T05:33:05.063Z,11.38
2019-05-09T05:36:09.632Z,11.37
2019-05-09T05:39:14.339Z,11.40
2019-05-09T05:42:22.026Z,11.45
2019-05-09T05:45:28.385Z,11.41
2019-05-09T05:48:32.488Z,11.57
2019-05-09T05:51:49.153Z,11.83
2019-05-09T05:54:53.495Z,13.20
2019-05-09T05:57:58.099Z,13.39
2019-05-09T06:01:04.566Z,13.03
2019-05-09T06:04:08.753Z,13.03
2019-05-09T06:07:12.919Z,13.07
2019-05-09T06:10:18.661Z,13.33
2019-05-09T06:13:23.289Z,13.42
2019-05-09T06:16:28.128Z,14.04
2019-05-09T06:19:32.481Z,14.02
2019-05-09T06:22:38.248Z,14.28
2019-05-09T06:25:42.203Z,15.02
2019-05-09T06:28:48.122Z,15.58
2019-05-09T06:31:52.220Z,15.18
2019-05-09T06:34:57.835Z,14.66
2019-05-09T06:38:01.938Z,14.29
2019-05-09T06:41:08.489Z,14.13
2019-05-09T06:44:28.312Z,14.25
2019-05-09T06:47:38.203Z,14.51
2019-05-09T06:50:42.571Z,15.16
2019-05-09T06:53:48.858Z,15.63
2019-05-09T06:56:53.206Z,15.89
2019-05-09T06:59:57.897Z,16.12
2019-05-09T07:03:08.081Z,16.28
2019-05-09T07:06:17.803Z,15.91
2019-05-09T07:09:43.755Z,15.70
2019-05-09T07:12:48.709Z,15.62
2019-05-09T07:15:53.290Z,15.51
2019-05-09T07:18:58.018Z,15.41
2019-05-09T07:22:19.666Z,15.30
2019-05-09T07:25:48.915Z,15.13
2019-05-09T07:28:53.147Z,14.98
2019-05-09T07:32:05.019Z,14.82
2019-05-09T07:35:09.564Z,14.72
2019-05-09T07:38:13.794Z,14.66
2019-05-09T07:41:18.127Z,14.57
2019-05-09T07:44:22.346Z,14.40
2019-05-09T07:47:28.217Z,14.26
2019-05-09T07:50:32.299Z,14.16
2019-05-09T07:53:38.029Z,14.05
2019-05-09T07:56:42.425Z,13.93
2019-05-09T07:59:47.856Z,13.73
2019-05-09T08:02:51.999Z,13.75
2019-05-09T08:05:57.967Z,13.89
2019-05-09T08:09:03.274Z,14.08
2019-05-09T08:12:07.573Z,14.34
2019-05-09T08:15:16.626Z,14.54
2019-05-09T08:18:18.212Z,14.73
2019-05-09T08:21:22.351Z,14.78
2019-05-09T08:24:27.812Z,14.91
2019-05-09T08:27:32.590Z,14.99
2019-05-09T08:30:40.093Z,15.08
2019-05-09T08:33:42.297Z,15.26
2019-05-09T08:36:47.781Z,15.58
2019-05-09T08:39:52.222Z,15.94
2019-05-09T08:42:58.534Z,16.16
2019-05-09T08:46:02.443Z,16.18
2019-05-09T08:49:08.227Z,16.10
2019-05-09T08:52:16.442Z,16.14
2019-05-09T08:55:19.702Z,16.25
2019-05-09T08:58:23.594Z,16.56
2019-05-09T09:01:46.095Z,16.82
2019-05-09T09:04:33.991Z,17.03
2019-05-09T09:07:38.310Z,17.06
2019-05-09T09:10:42.266Z,16.96
2019-05-09T09:13:48.294Z,16.44
2019-05-09T09:16:52.395Z,16.26
2019-05-09T09:19:58.341Z,16.49
2019-05-09T09:23:02.912Z,16.76
2019-05-09T09:26:08.066Z,17.05
2019-05-09T09:29:12.148Z,17.04
2019-05-09T09:32:18.664Z,16.90
2019-05-09T09:35:21.995Z,16.87
2019-05-09T09:38:28.112Z,16.98
2019-05-09T09:41:33.074Z,17.05
2019-05-09T09:44:39.383Z,16.94
2019-05-09T09:47:43.279Z,16.87
2019-05-09T09:50:51.348Z,16.88
2019-05-09T09:53:53.346Z,17.03
2019-05-09T09:56:58.573Z,17.24
2019-05-09T10:00:23.404Z,17.42
2019-05-09T10:03:27.593Z,17.33
2019-05-09T10:06:32.262Z,16.96
2019-05-09T10:09:36.357Z,16.63
2019-05-09T10:12:44.301Z,16.29
2019-05-09T10:16:02.801Z,16.00
2019-05-09T10:19:18.532Z,15.62
2019-05-09T10:22:25.832Z,15.31
2019-05-09T10:25:29.440Z,15.27
2019-05-09T10:28:33.721Z,15.31
2019-05-09T10:31:39.204Z,15.35
2019-05-09T10:34:43.436Z,15.44
2019-05-09T10:37:48.558Z,15.36
2019-05-09T10:40:53.504Z,15.41
2019-05-09T10:44:04.081Z,15.44
2019-05-09T10:47:21.470Z,15.43
2019-05-09T10:50:25.364Z,15.48
2019-05-09T10:53:29.270Z,15.53
2019-05-09T10:56:33.513Z,15.42
2019-05-09T10:59:38.280Z,15.54
2019-05-09T11:02:42.901Z,15.64
2019-05-09T11:05:47.162Z,15.97
2019-05-09T11:08:51.014Z,16.63
2019-05-09T11:11:58.629Z,17.36
2019-05-09T11:15:01.439Z,17.73
2019-05-09T11:18:07.907Z,18.04
2019-05-09T11:21:11.559Z,18.07
2019-05-09T11:24:15.806Z,17.87
2019-05-09T11:27:20.008Z,17.64
2019-05-09T11:30:24.110Z,17.37
2019-05-09T11:33:28.300Z,17.16
2019-05-09T11:36:32.182Z,17.05
2019-05-09T11:39:41.770Z,16.99
2019-05-09T11:42:41.962Z,17.01
2019-05-09T11:45:47.891Z,17.16
2019-05-09T11:48:51.961Z,17.34
2019-05-09T11:51:57.649Z,17.46
2019-05-09T11:55:02.056Z,17.52
2019-05-09T11:58:08.409Z,17.45
2019-05-09T12:01:12.730Z,17.38
2019-05-09T12:04:18.718Z,17.41
2019-05-09T12:07:22.897Z,17.26
2019-05-09T12:10:28.610Z,16.92
2019-05-09T12:13:33.424Z,16.71
2019-05-09T12:16:38.201Z,16.43
2019-05-09T12:19:42.405Z,16.21
2019-05-09T12:22:48.464Z,16.05
2019-05-09T12:25:52.748Z,15.94
2019-05-09T12:28:57.818Z,15.81
2019-05-09T12:32:02.424Z,15.74
2019-05-09T12:35:08.676Z,15.60
2019-05-09T12:38:12.380Z,15.41
2019-05-09T12:41:18.685Z,15.22
2019-05-09T12:44:24.920Z,15.19
2019-05-09T12:47:29.091Z,15.16
2019-05-09T12:50:33.528Z,15.11
2019-05-09T12:53:39.597Z,15.01
2019-05-09T12:56:44.421Z,14.89
2019-05-09T12:59:52.680Z,14.94
2019-05-09T13:02:54.892Z,14.89
2019-05-09T13:05:59.491Z,14.88
2019-05-09T13:09:08.154Z,14.92
2019-05-09T13:12:11.848Z,15.06
2019-05-09T13:15:18.399Z,15.29
2019-05-09T13:18:25.386Z,15.49
2019-05-09T13:21:32.577Z,15.78
2019-05-09T13:24:34.498Z,15.90
2019-05-09T13:27:39.032Z,15.79
2019-05-09T13:30:43.781Z,15.61
2019-05-09T13:33:48.846Z,15.43
2019-05-09T13:36:53.390Z,15.35
2019-05-09T13:39:57.416Z,15.34
2019-05-09T13:43:01.893Z,15.47
2019-05-09T13:46:08.469Z,15.74
2019-05-09T13:49:15.414Z,15.88
2019-05-09T13:52:18.154Z,15.97
2019-05-09T13:55:22.327Z,15.92
2019-05-09T13:58:28.388Z,15.94
2019-05-09T14:01:32.331Z,16.00
2019-05-09T14:04:39.453Z,16.05
2019-05-09T14:07:42.375Z,15.98
2019-05-09T14:10:48.367Z,15.99
2019-05-09T14:13:52.177Z,16.09
2019-05-09T14:16:56.108Z,16.05
2019-05-09T14:20:00.158Z,15.90
2019-05-09T14:23:04.533Z,15.88
2019-05-09T14:26:09.549Z,15.85
2019-05-09T14:29:13.877Z,15.88
2019-05-09T14:32:18.277Z,15.91
2019-05-09T14:35:22.233Z,15.83
2019-05-09T14:38:26.348Z,15.61
2019-05-09T14:41:30.283Z,15.52
2019-05-09T14:44:37.581Z,15.45
2019-05-09T14:47:42.686Z,15.31
2019-05-09T14:50:49.402Z,15.23
2019-05-09T14:53:52.759Z,15.30
2019-05-09T14:56:58.321Z,15.26
2019-05-09T15:00:03.667Z,15.34
2019-05-09T15:03:08.303Z,15.47
2019-05-09T15:06:12.691Z,15.57
2019-05-09T15:09:18.174Z,15.58
2019-05-09T15:12:22.707Z,15.67
2019-05-09T15:15:32.017Z,15.65
2019-05-09T15:18:32.602Z,15.52
2019-05-09T15:21:38.203Z,15.39
2019-05-09T15:24:42.966Z,15.26
2019-05-09T15:27:47.666Z,15.13
2019-05-09T15:30:52.706Z,15.05
2019-05-09T15:33:57.039Z,15.03
2019-05-09T15:37:01.234Z,15.15
2019-05-09T15:40:08.452Z,15.16
2019-05-09T15:43:11.626Z,15.25
2019-05-09T15:46:24.062Z,15.37
2019-05-09T15:49:28.570Z,15.33
2019-05-09T15:52:33.028Z,15.23
2019-05-09T15:55:37.417Z,15.22
2019-05-09T15:58:41.558Z,15.08
2019-05-09T16:01:45.715Z,15.04
2019-05-09T16:04:50.146Z,15.13
2019-05-09T16:07:54.079Z,15.34
2019-05-09T16:10:58.629Z,15.37
2019-05-09T16:14:03.258Z,15.40
2019-05-09T16:17:07.945Z,15.49
2019-05-09T16:20:12.320Z,15.57
2019-05-09T16:23:18.396Z,15.69
2019-05-09T16:26:22.117Z,15.78
2019-05-09T16:29:28.508Z,15.71
2019-05-09T16:32:32.743Z,15.61
2019-05-09T16:35:38.148Z,15.54
2019-05-09T16:38:48.479Z,15.45
2019-05-09T16:41:48.941Z,15.33
2019-05-09T16:44:52.776Z,15.22
2019-05-09T16:47:57.542Z,15.14
2019-05-09T16:51:04.336Z,14.93
2019-05-09T16:54:08.142Z,14.94
2019-05-09T16:57:12.079Z,14.93
2019-05-09T17:00:48.327Z,14.89
2019-05-09T17:03:52.465Z,14.91
2019-05-09T17:06:57.653Z,14.76
2019-05-09T17:10:02.052Z,14.67
2019-05-09T17:13:07.797Z,14.58
2019-05-09T17:16:12.545Z,14.50
2019-05-09T17:19:19.165Z,14.49
2019-05-09T17:22:41.438Z,14.50
2019-05-09T17:25:47.927Z,14.52
2019-05-09T17:28:51.878Z,14.56
2019-05-09T17:31:58.349Z,14.62
2019-05-09T17:35:02.235Z,14.69
2019-05-09T17:38:08.645Z,14.70
2019-05-09T17:41:12.465Z,14.74
2019-05-09T17:44:18.623Z,14.87
2019-05-09T17:47:22.804Z,15.00
2019-05-09T17:50:28.514Z,15.05
2019-05-09T17:53:33.760Z,15.00
2019-05-09T17:56:38.858Z,14.81
2019-05-09T17:59:44.599Z,14.62
2019-05-09T18:02:48.922Z,14.44
2019-05-09T18:05:53.141Z,14.28
2019-05-09T18:08:57.722Z,14.13
2019-05-09T18:12:01.901Z,14.06
2019-05-09T18:15:07.661Z,14.04
2019-05-09T18:18:11.887Z,14.03
2019-05-09T18:21:17.832Z,14.02
2019-05-09T18:24:21.614Z,14.03
2019-05-09T18:27:27.435Z,14.05
2019-05-09T18:30:31.576Z,14.09
2019-05-09T18:33:47.623Z,14.08
2019-05-09T18:36:52.141Z,14.09
2019-05-09T18:39:58.177Z,14.09
2019-05-09T18:43:02.221Z,14.09
2019-05-09T18:46:08.217Z,14.05
2019-05-09T18:49:12.260Z,14.07
2019-05-09T18:52:16.848Z,14.02
2019-05-09T18:55:21.351Z,14.03
2019-05-09T18:58:26.201Z,14.01
2019-05-09T19:01:30.713Z,13.90
2019-05-09T19:04:34.984Z,13.88
2019-05-09T19:07:39.165Z,13.85
2019-05-09T19:10:43.693Z,13.84
2019-05-09T19:13:48.317Z,13.80
2019-05-09T19:17:20.649Z,13.76
2019-05-09T19:20:33.511Z,13.75
2019-05-09T19:23:37.644Z,13.70
2019-05-09T19:26:42.060Z,13.68
2019-05-09T19:29:46.385Z,13.66
2019-05-09T19:32:50.665Z,13.64
2019-05-09T19:35:54.833Z,13.64
2019-05-09T19:38:59.000Z,13.58
2019-05-09T19:42:03.242Z,13.53
2019-05-09T19:45:08.954Z,13.53
2019-05-09T19:48:12.847Z,13.52
2019-05-09T19:51:16.807Z,13.51
2019-05-09T19:54:21.063Z,13.43
2019-05-09T19:57:25.794Z,13.42
2019-05-09T20:00:30.220Z,13.41
2019-05-09T20:03:34.544Z,13.39
2019-05-09T20:06:38.791Z,13.33
2019-05-09T20:09:51.362Z,13.23
2019-05-09T20:13:14.455Z,13.15
2019-05-09T20:16:18.760Z,13.06
2019-05-09T20:19:23.398Z,12.99
2019-05-09T20:22:27.400Z,12.97
2019-05-09T20:25:31.516Z,12.99
2019-05-09T20:28:35.935Z,13.03
2019-05-09T20:31:39.961Z,13.06
2019-05-09T20:34:43.872Z,13.09
2019-05-09T20:37:47.912Z,13.11
2019-05-09T20:40:52.160Z,13.12
2019-05-09T20:43:56.494Z,13.15
2019-05-09T20:47:01.179Z,13.14
2019-05-09T20:50:05.703Z,13.15
2019-05-09T20:53:10.237Z,13.14
2019-05-09T20:56:15.144Z,13.10
2019-05-09T20:59:19.825Z,13.12
2019-05-09T21:02:24.235Z,13.14
2019-05-09T21:05:28.335Z,13.15
2019-05-09T21:08:33.146Z,13.19
2019-05-09T21:11:37.325Z,13.20
2019-05-09T21:14:41.597Z,13.21
2019-05-09T21:17:45.632Z,13.22
2019-05-09T21:20:50.364Z,13.22
2019-05-09T21:23:54.944Z,13.19
2019-05-09T21:26:59.379Z,13.12
2019-05-09T21:30:04.439Z,13.06
2019-05-09T21:33:08.550Z,13.01
2019-05-09T21:36:12.483Z,12.93
2019-05-09T21:39:16.308Z,12.88
2019-05-09T21:42:20.478Z,12.83
2019-05-09T21:45:24.655Z,12.78
2019-05-09T21:48:29.646Z,12.79
2019-05-09T21:51:34.403Z,12.83
2019-05-09T21:54:38.671Z,12.86
2019-05-09T21:57:42.590Z,12.89
2019-05-09T22:00:50.780Z,12.91
2019-05-09T22:03:55.076Z,12.95
2019-05-09T22:06:59.310Z,12.99
2019-05-09T22:10:04.484Z,12.99
2019-05-09T22:13:08.803Z,13.01
2019-05-09T22:16:13.106Z,13.02
2019-05-09T22:19:17.591Z,12.99
2019-05-09T22:22:21.793Z,13.00
2019-05-09T22:25:25.781Z,13.04
2019-05-09T22:28:29.631Z,13.07
2019-05-09T22:31:34.080Z,13.10
2019-05-09T22:34:38.200Z,13.02
2019-05-09T22:37:42.932Z,13.02
2019-05-09T22:40:46.834Z,13.02
2019-05-09T22:43:50.764Z,13.01
2019-05-09T22:46:55.382Z,13.01
2019-05-09T22:49:59.210Z,13.02
2019-05-09T22:53:03.208Z,13.02
2019-05-09T22:56:07.842Z,13.00
2019-05-09T22:59:12.271Z,12.97
2019-05-09T23:02:16.197Z,12.98
2019-05-09T23:05:20.457Z,12.99
2019-05-09T23:08:24.629Z,13.01
2019-05-09T23:11:29.175Z,12.99
2019-05-09T23:14:33.695Z,13.02
2019-05-09T23:17:38.407Z,13.03
2019-05-09T23:20:57.475Z,13.04
2019-05-09T23:24:06.924Z,13.03
2019-05-09T23:27:13.118Z,13.02
2019-05-09T23:30:17.211Z,13.01
2019-05-09T23:33:22.256Z,12.99
2019-05-09T23:36:26.513Z,12.96
2019-05-09T23:39:35.103Z,12.92
2019-05-09T23:42:39.287Z,12.89
2019-05-09T23:45:44.198Z,12.90
2019-05-09T23:48:48.325Z,12.91
2019-05-09T23:51:52.610Z,12.92
2019-05-09T23:55:14.730Z,12.91
2019-05-09T23:58:36.912Z,12.90
